sensor_id;sensor_type;location;lat;lon;timestamp;temperature;humidity
25280;DHT22;13225;47.804;12.116;2023-07-24T00:00:20;20.70;99.90
25280;DHT22;13225;47.804;12.116;2023-07-24T00:02:46;20.70;99.90
25280;DHT22;13225;47.804;12.116;2023-07-24T00:05:11;20.70;99.90
25280;DHT22;13225;47.804;12.116;2023-07-24T00:07:37;20.60;99.90
25280;DHT22;13225;47.804;12.116;2023-07-24T00:10:03;20.60;99.90
25280;DHT22;13225;47.804;12.116;2023-07-24T00:12:29;20.60;99.90
25280;DHT22;13225;47.804;12.116;2023-07-24T00:14:54;20.50;99.90
25280;DHT22;13225;47.804;12.116;2023-07-24T00:17:20;20.50;99.90
25280;DHT22;13225;47.804;12.116;2023-07-24T00:19:46;20.40;99.90
25280;DHT22;13225;47.804;12.116;2023-07-24T00:22:11;20.50;99.90
25280;DHT22;13225;47.804;12.116;2023-07-24T00:24:37;20.50;99.90
25280;DHT22;13225;47.804;12.116;2023-07-24T00:27:02;20.50;99.90
25280;DHT22;13225;47.804;12.116;2023-07-24T00:29:28;20.50;99.90
25280;DHT22;13225;47.804;12.116;2023-07-24T00:31:54;20.40;99.90
25280;DHT22;13225;47.804;12.116;2023-07-24T00:34:19;20.40;99.90
25280;DHT22;13225;47.804;12.116;2023-07-24T00:36:45;20.50;99.90
25280;DHT22;13225;47.804;12.116;2023-07-24T00:39:11;20.50;99.90
25280;DHT22;13225;47.804;12.116;2023-07-24T00:41:37;20.50;99.90
25280;DHT22;13225;47.804;12.116;2023-07-24T00:44:02;20.40;99.90
25280;DHT22;13225;47.804;12.116;2023-07-24T00:46:29;20.40;99.90
25280;DHT22;13225;47.804;12.116;2023-07-24T00:48:58;20.30;99.90
25280;DHT22;13225;47.804;12.116;2023-07-24T00:51:26;20.30;99.90
25280;DHT22;13225;47.804;12.116;2023-07-24T00:53:54;20.30;99.90
25280;DHT22;13225;47.804;12.116;2023-07-24T00:56:21;20.30;99.90
25280;DHT22;13225;47.804;12.116;2023-07-24T00:58:47;20.30;99.90
25280;DHT22;13225;47.804;12.116;2023-07-24T01:01:14;20.30;99.90
25280;DHT22;13225;47.804;12.116;2023-07-24T01:03:40;20.20;99.90
25280;DHT22;13225;47.804;12.116;2023-07-24T01:06:05;20.20;99.90
25280;DHT22;13225;47.804;12.116;2023-07-24T01:08:31;20.20;99.90
25280;DHT22;13225;47.804;12.116;2023-07-24T01:11:00;20.20;99.90
25280;DHT22;13225;47.804;12.116;2023-07-24T01:13:32;20.20;99.90
25280;DHT22;13225;47.804;12.116;2023-07-24T01:16:04;20.30;99.90
25280;DHT22;13225;47.804;12.116;2023-07-24T01:18:34;20.30;99.90
25280;DHT22;13225;47.804;12.116;2023-07-24T01:21:03;20.30;99.90
25280;DHT22;13225;47.804;12.116;2023-07-24T01:26:00;20.40;99.90
25280;DHT22;13225;47.804;12.116;2023-07-24T01:28:28;20.40;99.90
25280;DHT22;13225;47.804;12.116;2023-07-24T01:30:54;20.50;99.90
25280;DHT22;13225;47.804;12.116;2023-07-24T01:33:20;20.40;99.90
25280;DHT22;13225;47.804;12.116;2023-07-24T01:35:49;20.40;99.90
25280;DHT22;13225;47.804;12.116;2023-07-24T01:38:16;20.40;99.90
25280;DHT22;13225;47.804;12.116;2023-07-24T01:40:42;20.30;99.90
25280;DHT22;13225;47.804;12.116;2023-07-24T01:43:09;20.30;99.90
25280;DHT22;13225;47.804;12.116;2023-07-24T01:45:35;20.40;99.90
25280;DHT22;13225;47.804;12.116;2023-07-24T01:48:03;20.30;99.90
25280;DHT22;13225;47.804;12.116;2023-07-24T01:50:29;20.30;99.90
25280;DHT22;13225;47.804;12.116;2023-07-24T01:52:54;20.20;99.90
25280;DHT22;13225;47.804;12.116;2023-07-24T01:55:20;20.20;99.90
25280;DHT22;13225;47.804;12.116;2023-07-24T01:57:46;20.30;99.90
25280;DHT22;13225;47.804;12.116;2023-07-24T02:00:11;20.30;99.90
25280;DHT22;13225;47.804;12.116;2023-07-24T02:02:37;20.40;99.90
25280;DHT22;13225;47.804;12.116;2023-07-24T02:05:03;20.30;99.90
25280;DHT22;13225;47.804;12.116;2023-07-24T02:07:29;20.30;99.90
25280;DHT22;13225;47.804;12.116;2023-07-24T02:09:55;20.30;99.90
25280;DHT22;13225;47.804;12.116;2023-07-24T02:12:20;20.20;99.90
25280;DHT22;13225;47.804;12.116;2023-07-24T02:14:46;20.20;99.90
25280;DHT22;13225;47.804;12.116;2023-07-24T02:17:15;20.10;99.90
25280;DHT22;13225;47.804;12.116;2023-07-24T02:19:41;20.20;99.90
25280;DHT22;13225;47.804;12.116;2023-07-24T02:22:06;20.10;99.90
25280;DHT22;13225;47.804;12.116;2023-07-24T02:24:32;20.10;99.90
25280;DHT22;13225;47.804;12.116;2023-07-24T02:26:57;20.00;99.90
25280;DHT22;13225;47.804;12.116;2023-07-24T02:29:23;20.00;99.90
25280;DHT22;13225;47.804;12.116;2023-07-24T02:31:49;20.00;99.90
25280;DHT22;13225;47.804;12.116;2023-07-24T02:34:15;20.00;99.90
25280;DHT22;13225;47.804;12.116;2023-07-24T02:36:40;20.00;99.90
25280;DHT22;13225;47.804;12.116;2023-07-24T02:39:07;20.00;99.90
25280;DHT22;13225;47.804;12.116;2023-07-24T02:41:32;20.00;99.90
25280;DHT22;13225;47.804;12.116;2023-07-24T02:43:58;20.00;99.90
25280;DHT22;13225;47.804;12.116;2023-07-24T02:46:23;20.00;99.90
25280;DHT22;13225;47.804;12.116;2023-07-24T02:48:51;19.90;99.90
25280;DHT22;13225;47.804;12.116;2023-07-24T02:51:16;19.80;99.90
25280;DHT22;13225;47.804;12.116;2023-07-24T02:53:42;19.80;99.90
25280;DHT22;13225;47.804;12.116;2023-07-24T02:56:07;19.80;99.90
25280;DHT22;13225;47.804;12.116;2023-07-24T02:58:33;19.90;99.90
25280;DHT22;13225;47.804;12.116;2023-07-24T03:01:06;19.90;99.90
25280;DHT22;13225;47.804;12.116;2023-07-24T03:03:33;19.90;99.90
25280;DHT22;13225;47.804;12.116;2023-07-24T03:05:59;19.90;99.90
25280;DHT22;13225;47.804;12.116;2023-07-24T03:08:25;19.80;99.90
25280;DHT22;13225;47.804;12.116;2023-07-24T03:10:50;19.70;99.90
25280;DHT22;13225;47.804;12.116;2023-07-24T03:13:16;19.70;99.90
25280;DHT22;13225;47.804;12.116;2023-07-24T03:15:41;19.70;99.90
25280;DHT22;13225;47.804;12.116;2023-07-24T03:18:07;19.70;99.90
25280;DHT22;13225;47.804;12.116;2023-07-24T03:20:33;19.80;99.90
25280;DHT22;13225;47.804;12.116;2023-07-24T03:22:58;19.80;99.90
25280;DHT22;13225;47.804;12.116;2023-07-24T03:25:24;19.90;99.90
25280;DHT22;13225;47.804;12.116;2023-07-24T03:27:49;20.00;99.90
25280;DHT22;13225;47.804;12.116;2023-07-24T03:30:15;19.90;99.90
25280;DHT22;13225;47.804;12.116;2023-07-24T03:32:40;19.90;99.90
25280;DHT22;13225;47.804;12.116;2023-07-24T03:35:06;19.90;99.90
25280;DHT22;13225;47.804;12.116;2023-07-24T03:37:34;19.90;99.90
25280;DHT22;13225;47.804;12.116;2023-07-24T03:39:59;19.80;99.90
25280;DHT22;13225;47.804;12.116;2023-07-24T03:42:29;19.90;99.90
25280;DHT22;13225;47.804;12.116;2023-07-24T03:44:56;19.60;99.90
25280;DHT22;13225;47.804;12.116;2023-07-24T03:47:23;21.80;99.90
25280;DHT22;13225;47.804;12.116;2023-07-24T03:49:50;21.80;99.90
25280;DHT22;13225;47.804;12.116;2023-07-24T03:52:15;21.00;99.90
25280;DHT22;13225;47.804;12.116;2023-07-24T03:54:41;20.70;99.90
25280;DHT22;13225;47.804;12.116;2023-07-24T03:57:07;20.50;99.90
25280;DHT22;13225;47.804;12.116;2023-07-24T03:59:33;20.20;99.90
25280;DHT22;13225;47.804;12.116;2023-07-24T04:01:58;20.00;99.90
25280;DHT22;13225;47.804;12.116;2023-07-24T04:04:24;19.70;99.90
25280;DHT22;13225;47.804;12.116;2023-07-24T04:06:50;19.60;99.90
25280;DHT22;13225;47.804;12.116;2023-07-24T04:09:15;19.50;99.90
25280;DHT22;13225;47.804;12.116;2023-07-24T04:11:43;19.40;99.90
25280;DHT22;13225;47.804;12.116;2023-07-24T04:14:09;19.30;99.90
25280;DHT22;13225;47.804;12.116;2023-07-24T04:16:35;19.20;99.90
25280;DHT22;13225;47.804;12.116;2023-07-24T04:19:00;19.20;99.90
25280;DHT22;13225;47.804;12.116;2023-07-24T04:21:26;19.20;99.90
25280;DHT22;13225;47.804;12.116;2023-07-24T04:23:51;19.20;99.90
25280;DHT22;13225;47.804;12.116;2023-07-24T04:26:17;19.20;99.90
25280;DHT22;13225;47.804;12.116;2023-07-24T04:28:43;19.20;99.90
25280;DHT22;13225;47.804;12.116;2023-07-24T04:31:08;19.20;99.90
25280;DHT22;13225;47.804;12.116;2023-07-24T04:33:34;19.40;99.90
25280;DHT22;13225;47.804;12.116;2023-07-24T04:35:59;19.60;99.90
25280;DHT22;13225;47.804;12.116;2023-07-24T04:38:25;19.60;99.90
25280;DHT22;13225;47.804;12.116;2023-07-24T04:40:51;19.70;99.90
25280;DHT22;13225;47.804;12.116;2023-07-24T04:43:16;19.70;99.90
25280;DHT22;13225;47.804;12.116;2023-07-24T04:45:42;19.70;99.90
25280;DHT22;13225;47.804;12.116;2023-07-24T04:48:07;19.60;99.90
25280;DHT22;13225;47.804;12.116;2023-07-24T04:50:33;19.60;99.90
25280;DHT22;13225;47.804;12.116;2023-07-24T04:52:59;19.60;99.90
25280;DHT22;13225;47.804;12.116;2023-07-24T04:55:24;19.70;99.90
25280;DHT22;13225;47.804;12.116;2023-07-24T04:57:50;19.80;99.90
25280;DHT22;13225;47.804;12.116;2023-07-24T05:00:16;20.10;99.90
25280;DHT22;13225;47.804;12.116;2023-07-24T05:02:41;20.80;99.90
25280;DHT22;13225;47.804;12.116;2023-07-24T05:05:07;21.20;99.90
25280;DHT22;13225;47.804;12.116;2023-07-24T05:07:33;21.40;99.90
25280;DHT22;13225;47.804;12.116;2023-07-24T05:09:59;21.50;99.90
25280;DHT22;13225;47.804;12.116;2023-07-24T05:12:25;21.90;99.90
25280;DHT22;13225;47.804;12.116;2023-07-24T05:14:50;22.30;99.90
25280;DHT22;13225;47.804;12.116;2023-07-24T05:17:16;22.60;99.90
25280;DHT22;13225;47.804;12.116;2023-07-24T05:19:42;22.70;99.90
25280;DHT22;13225;47.804;12.116;2023-07-24T05:22:07;22.40;99.90
25280;DHT22;13225;47.804;12.116;2023-07-24T05:24:38;22.90;99.90
25280;DHT22;13225;47.804;12.116;2023-07-24T05:27:04;22.90;99.90
25280;DHT22;13225;47.804;12.116;2023-07-24T05:29:30;23.20;99.90
25280;DHT22;13225;47.804;12.116;2023-07-24T05:31:56;23.30;99.90
25280;DHT22;13225;47.804;12.116;2023-07-24T05:34:22;22.60;99.90
25280;DHT22;13225;47.804;12.116;2023-07-24T05:36:47;22.30;99.90
25280;DHT22;13225;47.804;12.116;2023-07-24T05:39:13;22.00;99.90
25280;DHT22;13225;47.804;12.116;2023-07-24T05:41:38;21.90;99.90
25280;DHT22;13225;47.804;12.116;2023-07-24T05:44:04;21.50;99.90
25280;DHT22;13225;47.804;12.116;2023-07-24T05:46:29;21.40;99.90
25280;DHT22;13225;47.804;12.116;2023-07-24T05:48:55;21.50;99.90
25280;DHT22;13225;47.804;12.116;2023-07-24T05:51:22;21.40;99.90
25280;DHT22;13225;47.804;12.116;2023-07-24T05:53:47;21.40;99.90
25280;DHT22;13225;47.804;12.116;2023-07-24T05:56:13;21.50;99.90
25280;DHT22;13225;47.804;12.116;2023-07-24T05:58:39;21.60;99.90
25280;DHT22;13225;47.804;12.116;2023-07-24T06:01:04;21.70;99.90
25280;DHT22;13225;47.804;12.116;2023-07-24T06:03:30;21.60;99.90
25280;DHT22;13225;47.804;12.116;2023-07-24T06:05:56;21.20;99.90
25280;DHT22;13225;47.804;12.116;2023-07-24T06:08:22;21.10;99.90
25280;DHT22;13225;47.804;12.116;2023-07-24T06:10:48;21.20;99.90
25280;DHT22;13225;47.804;12.116;2023-07-24T06:13:15;21.30;99.90
25280;DHT22;13225;47.804;12.116;2023-07-24T06:15:41;21.50;99.90
25280;DHT22;13225;47.804;12.116;2023-07-24T06:18:06;21.60;99.90
25280;DHT22;13225;47.804;12.116;2023-07-24T06:20:32;21.80;99.90
25280;DHT22;13225;47.804;12.116;2023-07-24T06:22:57;22.00;99.90
25280;DHT22;13225;47.804;12.116;2023-07-24T06:25:23;22.40;99.90
25280;DHT22;13225;47.804;12.116;2023-07-24T06:27:48;22.70;99.90
25280;DHT22;13225;47.804;12.116;2023-07-24T06:30:14;22.90;99.90
25280;DHT22;13225;47.804;12.116;2023-07-24T06:32:39;23.20;99.90
25280;DHT22;13225;47.804;12.116;2023-07-24T06:35:05;23.30;99.90
25280;DHT22;13225;47.804;12.116;2023-07-24T06:37:31;23.30;99.90
25280;DHT22;13225;47.804;12.116;2023-07-24T06:39:56;23.30;99.90
25280;DHT22;13225;47.804;12.116;2023-07-24T06:42:22;23.30;99.90
25280;DHT22;13225;47.804;12.116;2023-07-24T06:44:48;23.30;99.90
25280;DHT22;13225;47.804;12.116;2023-07-24T06:47:13;23.30;99.90
25280;DHT22;13225;47.804;12.116;2023-07-24T06:49:39;23.20;99.90
25280;DHT22;13225;47.804;12.116;2023-07-24T06:52:04;23.00;99.90
25280;DHT22;13225;47.804;12.116;2023-07-24T06:54:30;22.80;99.90
25280;DHT22;13225;47.804;12.116;2023-07-24T06:56:55;22.90;99.90
25280;DHT22;13225;47.804;12.116;2023-07-24T06:59:21;23.20;99.90
25280;DHT22;13225;47.804;12.116;2023-07-24T07:01:47;23.50;99.90
25280;DHT22;13225;47.804;12.116;2023-07-24T07:04:12;23.50;99.90
25280;DHT22;13225;47.804;12.116;2023-07-24T07:06:38;23.40;99.90
25280;DHT22;13225;47.804;12.116;2023-07-24T07:09:03;23.60;99.90
25280;DHT22;13225;47.804;12.116;2023-07-24T07:11:30;23.70;99.90
25280;DHT22;13225;47.804;12.116;2023-07-24T07:13:55;24.10;99.90
25280;DHT22;13225;47.804;12.116;2023-07-24T07:16:21;24.30;99.90
25280;DHT22;13225;47.804;12.116;2023-07-24T07:18:46;24.30;99.90
25280;DHT22;13225;47.804;12.116;2023-07-24T07:21:12;24.40;99.90
25280;DHT22;13225;47.804;12.116;2023-07-24T07:23:37;24.50;99.90
25280;DHT22;13225;47.804;12.116;2023-07-24T07:26:03;24.60;99.90
25280;DHT22;13225;47.804;12.116;2023-07-24T07:28:29;24.40;99.90
25280;DHT22;13225;47.804;12.116;2023-07-24T07:30:54;24.30;99.90
25280;DHT22;13225;47.804;12.116;2023-07-24T07:33:20;24.10;99.90
25280;DHT22;13225;47.804;12.116;2023-07-24T07:35:49;23.90;99.90
25280;DHT22;13225;47.804;12.116;2023-07-24T07:38:15;23.90;99.90
25280;DHT22;13225;47.804;12.116;2023-07-24T07:40:41;24.30;99.90
25280;DHT22;13225;47.804;12.116;2023-07-24T07:43:06;24.20;99.90
25280;DHT22;13225;47.804;12.116;2023-07-24T07:45:32;24.10;99.90
25280;DHT22;13225;47.804;12.116;2023-07-24T07:47:58;23.90;99.90
25280;DHT22;13225;47.804;12.116;2023-07-24T07:50:24;23.90;99.90
25280;DHT22;13225;47.804;12.116;2023-07-24T07:52:50;23.90;99.90
25280;DHT22;13225;47.804;12.116;2023-07-24T07:55:17;23.90;99.90
25280;DHT22;13225;47.804;12.116;2023-07-24T07:57:43;23.90;99.90
25280;DHT22;13225;47.804;12.116;2023-07-24T08:00:08;23.60;99.90
25280;DHT22;13225;47.804;12.116;2023-07-24T08:02:34;23.30;99.90
25280;DHT22;13225;47.804;12.116;2023-07-24T08:05:00;23.40;99.90
25280;DHT22;13225;47.804;12.116;2023-07-24T08:07:26;23.30;99.90
25280;DHT22;13225;47.804;12.116;2023-07-24T08:09:51;23.40;99.90
25280;DHT22;13225;47.804;12.116;2023-07-24T08:12:17;23.60;99.90
25280;DHT22;13225;47.804;12.116;2023-07-24T08:14:42;23.50;99.90
25280;DHT22;13225;47.804;12.116;2023-07-24T08:17:08;23.30;99.90
25280;DHT22;13225;47.804;12.116;2023-07-24T08:19:34;23.40;99.90
25280;DHT22;13225;47.804;12.116;2023-07-24T08:21:59;23.20;99.90
25280;DHT22;13225;47.804;12.116;2023-07-24T08:24:25;23.20;99.90
25280;DHT22;13225;47.804;12.116;2023-07-24T08:26:50;23.00;99.90
25280;DHT22;13225;47.804;12.116;2023-07-24T08:29:16;23.20;99.90
25280;DHT22;13225;47.804;12.116;2023-07-24T08:31:42;23.30;99.90
25280;DHT22;13225;47.804;12.116;2023-07-24T08:34:07;23.30;99.90
25280;DHT22;13225;47.804;12.116;2023-07-24T08:36:33;23.50;99.90
25280;DHT22;13225;47.804;12.116;2023-07-24T08:38:58;23.80;99.90
25280;DHT22;13225;47.804;12.116;2023-07-24T08:41:24;24.50;99.90
25280;DHT22;13225;47.804;12.116;2023-07-24T08:43:50;24.80;99.90
25280;DHT22;13225;47.804;12.116;2023-07-24T08:46:18;24.90;99.90
25280;DHT22;13225;47.804;12.116;2023-07-24T08:48:43;25.00;99.90
25280;DHT22;13225;47.804;12.116;2023-07-24T08:51:15;25.70;99.90
25280;DHT22;13225;47.804;12.116;2023-07-24T08:53:43;26.10;99.90
25280;DHT22;13225;47.804;12.116;2023-07-24T08:56:10;26.40;99.90
25280;DHT22;13225;47.804;12.116;2023-07-24T08:58:36;26.40;99.90
25280;DHT22;13225;47.804;12.116;2023-07-24T09:01:03;26.10;99.90
25280;DHT22;13225;47.804;12.116;2023-07-24T09:03:30;25.50;99.90
25280;DHT22;13225;47.804;12.116;2023-07-24T09:05:56;25.40;99.90
25280;DHT22;13225;47.804;12.116;2023-07-24T09:08:32;25.40;99.90
25280;DHT22;13225;47.804;12.116;2023-07-24T09:10:59;25.50;99.90
25280;DHT22;13225;47.804;12.116;2023-07-24T09:13:25;25.50;99.90
25280;DHT22;13225;47.804;12.116;2023-07-24T09:15:51;25.50;99.90
25280;DHT22;13225;47.804;12.116;2023-07-24T09:18:16;25.60;99.90
25280;DHT22;13225;47.804;12.116;2023-07-24T09:20:44;26.00;99.90
25280;DHT22;13225;47.804;12.116;2023-07-24T09:23:11;25.90;99.90
25280;DHT22;13225;47.804;12.116;2023-07-24T09:25:38;25.80;99.90
25280;DHT22;13225;47.804;12.116;2023-07-24T09:30:37;26.40;99.90
25280;DHT22;13225;47.804;12.116;2023-07-24T09:33:03;26.90;99.90
25280;DHT22;13225;47.804;12.116;2023-07-24T09:35:28;26.60;99.90
25280;DHT22;13225;47.804;12.116;2023-07-24T09:38:08;26.70;99.90
25280;DHT22;13225;47.804;12.116;2023-07-24T09:43:20;27.10;99.90
25280;DHT22;13225;47.804;12.116;2023-07-24T09:45:48;27.10;99.90
25280;DHT22;13225;47.804;12.116;2023-07-24T09:48:16;27.20;99.90
25280;DHT22;13225;47.804;12.116;2023-07-24T09:50:43;27.00;99.90
25280;DHT22;13225;47.804;12.116;2023-07-24T09:53:18;27.10;99.90
25280;DHT22;13225;47.804;12.116;2023-07-24T09:55:58;27.00;99.90
25280;DHT22;13225;47.804;12.116;2023-07-24T09:58:25;27.10;99.90
25280;DHT22;13225;47.804;12.116;2023-07-24T10:00:52;27.20;99.90
25280;DHT22;13225;47.804;12.116;2023-07-24T10:03:17;27.20;99.90
25280;DHT22;13225;47.804;12.116;2023-07-24T10:05:45;27.20;99.90
25280;DHT22;13225;47.804;12.116;2023-07-24T10:08:12;27.30;99.90
25280;DHT22;13225;47.804;12.116;2023-07-24T10:10:41;27.50;99.90
25280;DHT22;13225;47.804;12.116;2023-07-24T10:13:08;27.50;99.90
25280;DHT22;13225;47.804;12.116;2023-07-24T10:15:37;27.30;99.90
25280;DHT22;13225;47.804;12.116;2023-07-24T10:18:04;27.40;99.90
25280;DHT22;13225;47.804;12.116;2023-07-24T10:20:38;27.50;99.90
25280;DHT22;13225;47.804;12.116;2023-07-24T10:23:06;27.50;99.90
25280;DHT22;13225;47.804;12.116;2023-07-24T10:25:32;27.50;99.90
25280;DHT22;13225;47.804;12.116;2023-07-24T10:28:08;27.80;99.90
25280;DHT22;13225;47.804;12.116;2023-07-24T10:30:37;27.90;99.90
25280;DHT22;13225;47.804;12.116;2023-07-24T10:33:17;27.90;99.90
25280;DHT22;13225;47.804;12.116;2023-07-24T10:36:07;28.00;99.90
25280;DHT22;13225;47.804;12.116;2023-07-24T10:38:40;28.20;99.90
25280;DHT22;13225;47.804;12.116;2023-07-24T10:41:07;28.20;99.90
25280;DHT22;13225;47.804;12.116;2023-07-24T10:43:47;28.40;99.90
25280;DHT22;13225;47.804;12.116;2023-07-24T10:46:15;28.40;99.90
25280;DHT22;13225;47.804;12.116;2023-07-24T10:48:48;28.40;99.90
25280;DHT22;13225;47.804;12.116;2023-07-24T10:51:14;28.50;99.90
25280;DHT22;13225;47.804;12.116;2023-07-24T10:53:47;28.40;99.90
25280;DHT22;13225;47.804;12.116;2023-07-24T10:56:13;28.50;99.90
25280;DHT22;13225;47.804;12.116;2023-07-24T10:58:39;28.60;99.90
25280;DHT22;13225;47.804;12.116;2023-07-24T11:01:06;28.70;99.90
25280;DHT22;13225;47.804;12.116;2023-07-24T11:03:32;28.80;99.90
25280;DHT22;13225;47.804;12.116;2023-07-24T11:06:00;28.80;99.90
25280;DHT22;13225;47.804;12.116;2023-07-24T11:08:27;28.70;99.90
25280;DHT22;13225;47.804;12.116;2023-07-24T11:10:55;28.50;99.90
25280;DHT22;13225;47.804;12.116;2023-07-24T11:13:25;28.30;99.90
25280;DHT22;13225;47.804;12.116;2023-07-24T11:15:52;28.20;99.90
25280;DHT22;13225;47.804;12.116;2023-07-24T11:18:19;28.30;99.90
25280;DHT22;13225;47.804;12.116;2023-07-24T11:20:51;28.40;99.90
25280;DHT22;13225;47.804;12.116;2023-07-24T11:23:17;28.40;99.90
25280;DHT22;13225;47.804;12.116;2023-07-24T11:25:43;28.30;99.90
25280;DHT22;13225;47.804;12.116;2023-07-24T11:28:11;28.30;99.90
25280;DHT22;13225;47.804;12.116;2023-07-24T11:30:37;28.30;99.90
25280;DHT22;13225;47.804;12.116;2023-07-24T11:33:05;28.40;99.90
25280;DHT22;13225;47.804;12.116;2023-07-24T11:35:31;28.60;99.90
25280;DHT22;13225;47.804;12.116;2023-07-24T11:37:57;29.00;99.90
25280;DHT22;13225;47.804;12.116;2023-07-24T11:40:31;29.40;99.90
25280;DHT22;13225;47.804;12.116;2023-07-24T11:42:57;29.50;99.90
25280;DHT22;13225;47.804;12.116;2023-07-24T11:45:23;29.30;99.90
25280;DHT22;13225;47.804;12.116;2023-07-24T11:47:49;29.50;99.90
25280;DHT22;13225;47.804;12.116;2023-07-24T11:50:17;29.40;99.90
25280;DHT22;13225;47.804;12.116;2023-07-24T11:52:44;29.30;99.90
25280;DHT22;13225;47.804;12.116;2023-07-24T11:55:15;29.20;99.90
25280;DHT22;13225;47.804;12.116;2023-07-24T11:57:41;29.00;99.90
25280;DHT22;13225;47.804;12.116;2023-07-24T12:00:18;29.00;99.90
25280;DHT22;13225;47.804;12.116;2023-07-24T12:02:44;29.00;99.90
25280;DHT22;13225;47.804;12.116;2023-07-24T12:05:10;29.00;99.90
25280;DHT22;13225;47.804;12.116;2023-07-24T12:07:36;29.20;99.90
25280;DHT22;13225;47.804;12.116;2023-07-24T12:10:03;29.20;99.90
25280;DHT22;13225;47.804;12.116;2023-07-24T12:12:39;29.10;99.90
25280;DHT22;13225;47.804;12.116;2023-07-24T12:15:05;28.80;99.90
25280;DHT22;13225;47.804;12.116;2023-07-24T12:17:31;28.90;99.90
25280;DHT22;13225;47.804;12.116;2023-07-24T12:19:57;29.20;99.90
25280;DHT22;13225;47.804;12.116;2023-07-24T12:22:22;29.60;99.90
25280;DHT22;13225;47.804;12.116;2023-07-24T12:24:48;29.80;99.90
25280;DHT22;13225;47.804;12.116;2023-07-24T12:27:13;30.40;99.90
25280;DHT22;13225;47.804;12.116;2023-07-24T12:29:39;30.40;99.90
25280;DHT22;13225;47.804;12.116;2023-07-24T12:32:05;30.40;99.90
25280;DHT22;13225;47.804;12.116;2023-07-24T12:34:30;30.40;99.90
25280;DHT22;13225;47.804;12.116;2023-07-24T12:36:56;30.30;99.90
25280;DHT22;13225;47.804;12.116;2023-07-24T12:39:22;30.70;99.90
25280;DHT22;13225;47.804;12.116;2023-07-24T12:41:47;30.80;99.90
25280;DHT22;13225;47.804;12.116;2023-07-24T12:44:13;31.00;99.90
25280;DHT22;13225;47.804;12.116;2023-07-24T12:46:38;30.70;99.90
25280;DHT22;13225;47.804;12.116;2023-07-24T12:49:04;30.20;99.90
25280;DHT22;13225;47.804;12.116;2023-07-24T12:51:29;30.40;99.90
25280;DHT22;13225;47.804;12.116;2023-07-24T12:53:55;31.00;99.90
25280;DHT22;13225;47.804;12.116;2023-07-24T12:56:21;31.30;99.90
25280;DHT22;13225;47.804;12.116;2023-07-24T12:58:46;31.00;99.90
25280;DHT22;13225;47.804;12.116;2023-07-24T13:01:12;30.60;99.90
25280;DHT22;13225;47.804;12.116;2023-07-24T13:03:37;30.50;99.90
25280;DHT22;13225;47.804;12.116;2023-07-24T13:06:03;30.60;99.90
25280;DHT22;13225;47.804;12.116;2023-07-24T13:08:28;30.20;99.90
25280;DHT22;13225;47.804;12.116;2023-07-24T13:10:54;29.50;99.90
25280;DHT22;13225;47.804;12.116;2023-07-24T13:13:19;28.70;99.90
25280;DHT22;13225;47.804;12.116;2023-07-24T13:15:45;28.30;99.90
25280;DHT22;13225;47.804;12.116;2023-07-24T13:18:10;27.80;99.90
25280;DHT22;13225;47.804;12.116;2023-07-24T13:20:40;27.60;99.90
25280;DHT22;13225;47.804;12.116;2023-07-24T13:23:05;27.40;99.90
25280;DHT22;13225;47.804;12.116;2023-07-24T13:25:31;27.00;99.90
25280;DHT22;13225;47.804;12.116;2023-07-24T13:27:56;26.70;99.90
25280;DHT22;13225;47.804;12.116;2023-07-24T13:30:22;26.40;99.90
25280;DHT22;13225;47.804;12.116;2023-07-24T13:32:47;26.30;99.90
25280;DHT22;13225;47.804;12.116;2023-07-24T13:35:13;26.00;99.90
25280;DHT22;13225;47.804;12.116;2023-07-24T13:37:40;24.90;99.90
25280;DHT22;13225;47.804;12.116;2023-07-24T13:40:06;24.10;99.90
25280;DHT22;13225;47.804;12.116;2023-07-24T13:42:32;23.40;99.90
25280;DHT22;13225;47.804;12.116;2023-07-24T13:44:58;22.80;99.90
25280;DHT22;13225;47.804;12.116;2023-07-24T13:47:23;22.30;99.90
25280;DHT22;13225;47.804;12.116;2023-07-24T13:49:49;21.50;99.90
25280;DHT22;13225;47.804;12.116;2023-07-24T13:52:15;21.10;99.90
25280;DHT22;13225;47.804;12.116;2023-07-24T13:54:40;20.80;99.90
25280;DHT22;13225;47.804;12.116;2023-07-24T13:57:06;20.50;99.90
25280;DHT22;13225;47.804;12.116;2023-07-24T13:59:36;20.30;99.90
25280;DHT22;13225;47.804;12.116;2023-07-24T14:02:03;20.30;99.90
25280;DHT22;13225;47.804;12.116;2023-07-24T14:04:29;20.00;99.90
25280;DHT22;13225;47.804;12.116;2023-07-24T14:06:55;19.60;99.90
25280;DHT22;13225;47.804;12.116;2023-07-24T14:09:20;19.40;99.90
25280;DHT22;13225;47.804;12.116;2023-07-24T14:11:46;19.40;99.90
25280;DHT22;13225;47.804;12.116;2023-07-24T14:14:11;19.60;99.90
25280;DHT22;13225;47.804;12.116;2023-07-24T14:16:37;20.00;99.90
25280;DHT22;13225;47.804;12.116;2023-07-24T14:19:02;20.50;99.90
25280;DHT22;13225;47.804;12.116;2023-07-24T14:21:28;20.90;99.90
25280;DHT22;13225;47.804;12.116;2023-07-24T14:23:54;21.20;99.90
25280;DHT22;13225;47.804;12.116;2023-07-24T14:26:19;21.60;99.90
25280;DHT22;13225;47.804;12.116;2023-07-24T14:28:45;22.00;99.90
25280;DHT22;13225;47.804;12.116;2023-07-24T14:31:11;22.30;99.90
25280;DHT22;13225;47.804;12.116;2023-07-24T14:33:36;22.30;99.90
25280;DHT22;13225;47.804;12.116;2023-07-24T14:36:02;22.20;99.90
25280;DHT22;13225;47.804;12.116;2023-07-24T14:38:28;22.20;99.90
25280;DHT22;13225;47.804;12.116;2023-07-24T14:40:53;22.70;99.90
25280;DHT22;13225;47.804;12.116;2023-07-24T14:43:19;22.70;99.90
25280;DHT22;13225;47.804;12.116;2023-07-24T14:45:44;23.10;99.90
25280;DHT22;13225;47.804;12.116;2023-07-24T14:48:10;23.60;99.90
25280;DHT22;13225;47.804;12.116;2023-07-24T14:50:38;24.20;99.90
25280;DHT22;13225;47.804;12.116;2023-07-24T14:53:03;24.80;99.90
25280;DHT22;13225;47.804;12.116;2023-07-24T14:55:29;24.90;99.90
25280;DHT22;13225;47.804;12.116;2023-07-24T14:57:55;24.90;99.90
25280;DHT22;13225;47.804;12.116;2023-07-24T15:00:20;25.10;99.90
25280;DHT22;13225;47.804;12.116;2023-07-24T15:02:46;26.00;99.90
25280;DHT22;13225;47.804;12.116;2023-07-24T15:05:11;26.40;99.90
25280;DHT22;13225;47.804;12.116;2023-07-24T15:07:37;26.50;99.90
25280;DHT22;13225;47.804;12.116;2023-07-24T15:10:03;26.60;99.90
25280;DHT22;13225;47.804;12.116;2023-07-24T15:12:28;26.90;99.90
25280;DHT22;13225;47.804;12.116;2023-07-24T15:14:56;27.20;99.90
25280;DHT22;13225;47.804;12.116;2023-07-24T15:17:21;27.20;99.90